Time;durP1;ratioP1;P1;durP2;ratioP2;P2;SDS_P1;SDS_P2;PMS_P1;PMS_P2;Temp;Humidity;BMP_temperature;BMP_pressure;BME280_temperature;BME280_humidity;BME280_pressure;Samples;Min_cycle;Max_cycle;Signal;HPM_P1;HPM_P2
2021/11/17 03:35:20;;;;;;;870.07;803.50;;;5.50;99.90;;;;;;4648479;30;20483;-90
2021/11/17 04:04:47;;;;;;;860.10;795.40;;;5.60;99.90;;;;;;5254084;23;20490;-88
2021/11/17 04:24:28;;;;;;;883.53;817.87;;;5.60;99.90;;;;;;4656902;29;20479;-76
2021/11/17 04:41:27;;;;;;;868.17;804.80;;;5.80;99.90;;;;;;4652697;30;20508;-88
2021/11/17 04:44:18;;;;;;;859.43;796.77;;;5.70;99.90;;;;;;4699759;30;20477;-85
2021/11/17 04:57:34;;;;;;;;;;;;;;;;;;;;;
2021/11/17 05:00:43;;;;;;;847.73;787.57;;;5.80;99.90;;;;;;4853547;29;20463;-87
2021/11/17 05:33:32;;;;;;;;;;;;;;;;;;;;;
2021/11/17 05:36:58;;;;;;;829.97;773.97;;;5.80;99.90;;;;;;4646526;30;20459;-85
2021/11/17 05:39:56;;;;;;;831.73;775.47;;;5.80;99.90;;;;;;4666271;30;20470;-87
2021/11/17 05:42:40;;;;;;;852.27;794.50;;;5.80;99.90;;;;;;4669972;30;20963;-85
2021/11/17 05:49:33;;;;;;;840.77;782.77;;;5.80;99.90;;;;;;4673716;30;20473;-88
2021/11/17 06:28:04;;;;;;;822.67;768.87;;;5.90;99.90;;;;;;4660740;30;20472;-89
2021/11/17 06:43:08;;;;;;;849.97;793.07;;;5.90;99.90;;;;;;4579974;30;20453;-88
2021/11/17 06:49:47;;;;;;;;;;;;;;;;;;;;;
2021/11/17 06:52:59;;;;;;;;;;;;;;;;;;;;;
2021/11/17 06:55:55;;;;;;;878.10;817.90;;;5.90;99.90;;;;;;4757718;29;20469;-85
2021/11/17 06:59:07;;;;;;;877.37;815.87;;;5.90;99.90;;;;;;4767406;30;20489;-85
2021/11/17 07:17:26;;;;;;;788.73;733.53;;;6.20;99.90;;;;;;4878156;29;20973;-84
2021/11/17 07:19:57;;;;;;;794.00;737.60;;;6.20;99.90;;;;;;4892412;29;20511;-84
2021/11/17 07:29:31;;;;;;;;;;;;;;;;;;;;;
2021/11/17 07:35:47;;;;;;;850.93;791.57;;;6.40;99.90;;;;;;4896372;29;20514;-86
2021/11/17 07:42:36;;;;;;;811.87;755.67;;;6.60;99.90;;;;;;4820384;29;20567;-85
2021/11/17 09:12:35;;;;;;;564.90;539.00;;;7.30;99.90;;;;;;4816897;29;20478;-83
2021/11/17 09:52:17;;;;;;;;;;;;;;;;;;;;;
2021/11/17 09:58:33;;;;;;;435.33;417.23;;;8.00;99.90;;;;;;4753620;30;20463;-83
2021/11/17 10:01:08;;;;;;;410.90;394.27;;;8.00;99.90;;;;;;4821040;29;20689;-85
2021/11/17 10:03:48;;;;;;;420.10;402.67;;;8.10;99.90;;;;;;4850947;29;20468;-84
2021/11/17 10:12:49;;;;;;;451.00;431.80;;;8.10;99.90;;;;;;4861136;29;20457;-83
2021/11/17 10:15:15;;;;;;;458.23;437.83;;;8.20;99.90;;;;;;4860568;29;20484;-83
2021/11/17 10:17:48;;;;;;;480.73;458.93;;;8.20;99.90;;;;;;4860822;29;20555;-83
2021/11/17 10:20:35;;;;;;;501.73;478.73;;;8.10;99.90;;;;;;4862701;29;20459;-82
2021/11/17 10:23:47;;;;;;;578.43;551.37;;;8.00;99.90;;;;;;4864036;29;20468;-83
2021/11/17 10:26:32;;;;;;;610.60;580.33;;;8.10;99.90;;;;;;4825111;29;20563;-83
2021/11/17 10:29:08;;;;;;;615.20;582.90;;;8.30;99.90;;;;;;4876715;29;20540;-84
2021/11/17 10:31:57;;;;;;;630.87;597.53;;;8.20;99.90;;;;;;4879080;29;20462;-83
2021/11/17 10:34:31;;;;;;;656.30;622.00;;;8.20;99.90;;;;;;4863168;29;20555;-83
2021/11/17 10:37:13;;;;;;;650.60;616.33;;;8.20;99.90;;;;;;4877908;29;20951;-83
2021/11/17 10:40:17;;;;;;;678.20;641.57;;;8.20;99.90;;;;;;4878541;29;20964;-82
2021/11/17 10:45:39;;;;;;;671.47;634.67;;;8.10;99.90;;;;;;4876021;29;20465;-84
2021/11/17 10:48:20;;;;;;;669.27;632.97;;;8.10;99.90;;;;;;4878745;29;20463;-83
2021/11/17 10:50:47;;;;;;;700.07;660.77;;;8.20;99.90;;;;;;4878781;29;20499;-82
2021/11/17 10:53:31;;;;;;;712.07;670.77;;;8.20;99.90;;;;;;4877770;29;20979;-82
2021/11/17 10:56:03;;;;;;;713.27;671.93;;;8.20;99.90;;;;;;4878840;29;20467;-85
2021/11/17 10:58:39;;;;;;;740.97;697.57;;;8.20;99.90;;;;;;4878936;29;20474;-85
2021/11/17 11:01:14;;;;;;;751.97;706.17;;;8.40;99.90;;;;;;4878871;29;20462;-83
2021/11/17 11:04:05;;;;;;;752.50;706.53;;;8.30;99.90;;;;;;4878923;29;20474;-84
2021/11/17 11:06:39;;;;;;;762.30;715.53;;;8.40;99.90;;;;;;4878025;29;20546;-84
2021/11/17 11:09:11;;;;;;;779.73;730.93;;;8.60;99.90;;;;;;4878867;29;20574;-84
2021/11/17 11:11:42;;;;;;;771.93;722.53;;;8.60;99.90;;;;;;4878960;29;20495;-84
2021/11/17 11:14:15;;;;;;;771.63;722.30;;;8.80;99.90;;;;;;4878821;29;20491;-85
2021/11/17 11:17:26;;;;;;;758.73;710.97;;;8.70;99.90;;;;;;4878448;29;20952;-84
2021/11/17 11:20:49;;;;;;;742.37;696.83;;;8.80;99.90;;;;;;4876899;29;20948;-86
2021/11/17 11:23:23;;;;;;;717.20;673.63;;;8.90;99.90;;;;;;4859403;29;20980;-84
2021/11/17 11:26:25;;;;;;;702.57;660.93;;;8.90;99.90;;;;;;4860171;29;20480;-86
2021/11/17 11:29:22;;;;;;;705.67;664.50;;;9.00;99.90;;;;;;4855906;29;20456;-87
2021/11/17 11:31:54;;;;;;;656.37;620.40;;;9.00;99.90;;;;;;4860184;29;20460;-85
2021/11/17 11:35:12;;;;;;;646.87;611.97;;;9.00;99.90;;;;;;4859705;29;20502;-84
2021/11/17 11:41:24;;;;;;;597.37;565.50;;;9.10;99.90;;;;;;4877192;29;20554;-83
2021/11/17 11:44:42;;;;;;;599.17;566.70;;;9.20;99.90;;;;;;4881725;29;20467;-85
2021/11/17 11:47:42;;;;;;;610.67;578.07;;;9.40;99.90;;;;;;4845734;29;20468;-83
2021/11/17 11:51:00;;;;;;;529.03;501.30;;;9.40;99.90;;;;;;4869027;29;20571;-83
2021/11/17 12:04:28;;;;;;;493.67;467.57;;;9.40;99.90;;;;;;4808824;29;20793;-84
2021/11/17 12:07:14;;;;;;;507.80;482.40;;;9.40;99.90;;;;;;4822489;29;20476;-84
2021/11/17 12:09:59;;;;;;;485.50;461.13;;;9.60;99.90;;;;;;4896811;29;20459;-84
2021/11/17 12:12:51;;;;;;;492.20;467.70;;;9.50;99.90;;;;;;4885621;29;20523;-85
2021/11/17 12:15:39;;;;;;;488.20;463.50;;;9.60;99.90;;;;;;4873689;29;20470;-85
2021/11/17 12:18:57;;;;;;;498.40;473.17;;;9.50;99.90;;;;;;4871874;29;20467;-85
2021/11/17 12:21:36;;;;;;;538.43;510.17;;;9.50;99.90;;;;;;4880665;29;20551;-84
2021/11/17 12:30:51;;;;;;;546.73;517.27;;;9.60;99.90;;;;;;4804202;29;20991;-84
2021/11/17 12:37:31;;;;;;;530.93;503.70;;;9.70;99.90;;;;;;4789527;29;20883;-85
2021/11/17 12:40:15;;;;;;;527.63;500.20;;;9.60;99.90;;;;;;4860170;29;20464;-84
2021/11/17 12:43:07;;;;;;;570.07;539.63;;;9.50;99.90;;;;;;4860865;29;20456;-85
2021/11/17 12:45:50;;;;;;;;;;;;;;;;;;;;;
2021/11/17 12:49:04;;;;;;;584.60;551.93;;;9.40;99.90;;;;;;4861989;29;20464;-86
2021/11/17 12:51:38;;;;;;;569.53;539.83;;;9.40;99.90;;;;;;4854915;29;20521;-84
2021/11/17 12:54:23;;;;;;;601.40;568.80;;;9.40;99.90;;;;;;4861866;29;20506;-86
2021/11/17 12:57:15;;;;;;;608.20;574.70;;;9.50;99.90;;;;;;4861640;29;20484;-86
2021/11/17 13:00:08;;;;;;;620.67;586.33;;;9.50;99.90;;;;;;4804150;29;20577;-86
2021/11/17 13:05:59;;;;;;;608.43;574.77;;;9.40;99.90;;;;;;4831128;29;20516;-84
2021/11/17 13:12:14;;;;;;;655.93;616.33;;;9.30;99.90;;;;;;4877867;29;20468;-86
2021/11/17 13:15:22;;;;;;;679.00;638.83;;;9.30;99.90;;;;;;4880427;29;20519;-85
2021/11/17 13:18:27;;;;;;;710.40;665.70;;;9.30;99.90;;;;;;4877823;29;20963;-86
2021/11/17 13:21:13;;;;;;;732.30;684.97;;;9.30;99.90;;;;;;4880386;29;20502;-86
2021/11/17 13:24:32;;;;;;;740.97;693.50;;;9.30;99.90;;;;;;4879151;29;20470;-85
2021/11/17 13:27:38;;;;;;;735.80;687.53;;;9.30;99.90;;;;;;4856715;29;20492;-87
2021/11/17 13:30:41;;;;;;;742.53;694.30;;;9.30;99.90;;;;;;4871485;29;20465;-86
2021/11/17 13:39:35;;;;;;;768.40;716.37;;;9.30;99.90;;;;;;4872448;29;20471;-83
2021/11/17 13:42:29;;;;;;;782.17;729.37;;;9.40;99.90;;;;;;4880097;29;20464;-85
2021/11/17 13:44:58;;;;;;;765.23;712.80;;;9.50;99.90;;;;;;4880029;29;20467;-84
2021/11/17 13:47:49;;;;;;;768.90;717.43;;;9.30;99.90;;;;;;4879899;29;20491;-84
2021/11/17 13:50:34;;;;;;;761.40;710.87;;;9.40;99.90;;;;;;4879646;29;20983;-84
2021/11/17 13:53:08;;;;;;;770.70;718.47;;;9.30;99.90;;;;;;4878738;29;20470;-84
2021/11/17 13:55:49;;;;;;;783.50;731.30;;;9.40;99.90;;;;;;4879789;29;20586;-84
2021/11/17 13:58:22;;;;;;;801.37;746.93;;;9.30;99.90;;;;;;4879713;29;20967;-84
2021/11/17 14:01:16;;;;;;;809.93;754.40;;;9.40;99.90;;;;;;4879898;29;20547;-84
2021/11/17 14:07:46;;;;;;;826.20;769.20;;;9.40;99.90;;;;;;4877440;29;20463;-85
2021/11/17 14:10:35;;;;;;;;;;;;;;;;;;;;;
2021/11/17 14:13:21;;;;;;;817.50;761.47;;;9.40;99.90;;;;;;4874373;29;20455;-85
2021/11/17 14:16:42;;;;;;;808.37;752.20;;;9.40;99.90;;;;;;4879484;29;20578;-86
2021/11/17 14:22:50;;;;;;;789.60;734.80;;;9.40;99.90;;;;;;4870438;29;20458;-86
2021/11/17 15:10:55;;;;;;;719.53;672.13;;;9.40;99.90;;;;;;5123652;27;20879;-83
2021/11/17 15:14:00;;;;;;;730.27;681.47;;;9.50;99.90;;;;;;5130570;28;20631;-83
2021/11/17 15:19:17;;;;;;;719.43;671.10;;;9.50;99.90;;;;;;5127742;27;20509;-83
2021/11/17 15:22:52;;;;;;;;;;;;;;;;;;;;;
2021/11/17 15:29:08;;;;;;;746.07;697.10;;;9.50;99.90;;;;;;5128658;27;20444;-83
2021/11/17 15:35:57;;;;;;;710.30;663.20;;;9.40;99.90;;;;;;4953578;28;20446;-84
2021/11/17 15:38:24;;;;;;;724.50;676.37;;;9.30;99.90;;;;;;5075674;28;20453;-79
2021/11/17 15:44:16;;;;;;;742.30;693.27;;;9.20;99.90;;;;;;5112510;27;20938;-84
2021/11/17 15:48:14;;;;;;;;;;;;;;;;;;;;;
2021/11/17 15:58:10;;;;;;;748.30;697.23;;;9.00;99.90;;;;;;4763507;29;20460;-82
2021/11/17 16:00:56;;;;;;;753.90;699.93;;;8.90;99.90;;;;;;4854546;29;20514;-86
2021/11/17 16:04:18;;;;;;;778.07;723.17;;;8.70;99.90;;;;;;4872329;29;20454;-85
2021/11/17 16:07:26;;;;;;;798.33;740.33;;;8.60;99.90;;;;;;5053196;28;20460;-85
2021/11/17 16:10:16;;;;;;;819.07;756.87;;;8.50;99.90;;;;;;5103569;28;20453;-85
2021/11/17 16:13:19;;;;;;;834.30;768.60;;;8.50;99.90;;;;;;5115733;28;20902;-84
2021/11/17 16:15:51;;;;;;;830.27;762.67;;;8.40;99.90;;;;;;5109634;28;20471;-84
2021/11/17 16:18:53;;;;;;;837.03;765.90;;;8.50;99.90;;;;;;5115808;28;20456;-85
2021/11/17 16:21:36;;;;;;;876.00;805.93;;;8.60;99.90;;;;;;5116951;27;20444;-85
2021/11/17 16:27:16;;;;;;;;;;;;;;;;;;;;;
2021/11/17 16:30:08;;;;;;;869.27;796.10;;;8.40;99.90;;;;;;5061623;28;20477;-85
2021/11/17 16:33:02;;;;;;;862.77;791.17;;;8.20;99.90;;;;;;5114394;28;20972;-85
2021/11/17 16:44:41;;;;;;;876.73;797.73;;;7.90;99.90;;;;;;5050918;28;20448;-85
2021/11/17 16:50:35;;;;;;;873.33;791.33;;;8.00;99.90;;;;;;5071011;28;20458;-85
2021/11/17 16:53:34;;;;;;;874.17;792.60;;;8.00;99.90;;;;;;5112943;28;20996;-85
2021/11/17 16:56:49;;;;;;;;;;;;;;;;;;;;;
2021/11/17 17:05:47;;;;;;;875.77;792.97;;;8.20;99.90;;;;;;5118793;27;20859;-84
2021/11/17 17:08:21;;;;;;;886.83;803.27;;;8.40;99.90;;;;;;4990216;28;20469;-86
2021/11/17 17:11:29;;;;;;;892.87;810.67;;;8.50;99.90;;;;;;4991536;28;20464;-85
2021/11/17 17:14:18;;;;;;;898.60;818.97;;;8.60;99.90;;;;;;4917073;29;20891;-85
2021/11/17 17:17:12;;;;;;;893.03;815.33;;;8.60;99.90;;;;;;4966797;28;20961;-85
2021/11/17 17:19:57;;;;;;;883.67;807.37;;;8.60;99.90;;;;;;5089927;28;20566;-85
2021/11/17 17:23:02;;;;;;;876.70;801.70;;;8.60;99.90;;;;;;5099733;28;20448;-86
2021/11/17 17:26:13;;;;;;;872.23;797.67;;;8.70;99.90;;;;;;5110375;28;20440;-86
2021/11/17 17:28:40;;;;;;;864.53;791.40;;;8.70;99.90;;;;;;5107922;28;20452;-86
2021/11/17 17:31:21;;;;;;;857.87;784.77;;;8.70;99.90;;;;;;5114447;28;20509;-86
2021/11/17 17:33:52;;;;;;;863.50;791.70;;;8.80;99.90;;;;;;5119715;27;20567;-84
2021/11/17 17:36:20;;;;;;;861.87;791.53;;;8.90;99.90;;;;;;5114525;28;20513;-86
2021/11/17 17:39:17;;;;;;;852.03;782.17;;;8.80;99.90;;;;;;5113339;28;20869;-86
2021/11/17 17:41:51;;;;;;;832.80;767.23;;;8.90;99.90;;;;;;5112023;28;20448;-86
2021/11/17 17:47:40;;;;;;;789.93;729.93;;;8.90;99.90;;;;;;5086277;28;20449;-85
2021/11/17 17:50:22;;;;;;;780.37;724.07;;;9.00;99.90;;;;;;5114411;28;20533;-84
2021/11/17 17:52:54;;;;;;;768.97;713.63;;;9.00;99.90;;;;;;5112689;28;20487;-86
2021/11/17 17:55:37;;;;;;;769.27;715.33;;;8.90;99.90;;;;;;5113858;28;20467;-85
2021/11/17 18:01:17;;;;;;;745.17;693.80;;;8.80;99.90;;;;;;5114011;28;20536;-86
2021/11/17 18:04:10;;;;;;;768.03;713.77;;;8.70;99.90;;;;;;5113663;28;20974;-85
2021/11/17 18:07:00;;;;;;;765.70;710.93;;;8.70;99.90;;;;;;5112825;28;20471;-85
2021/11/17 18:09:49;;;;;;;788.50;732.33;;;8.80;99.90;;;;;;5124888;27;20508;-86
2021/11/17 18:12:34;;;;;;;791.97;736.53;;;8.70;99.90;;;;;;5134556;27;20448;-85
2021/11/17 20:16:03;;;;;;;836.50;764.20;;;7.00;99.90;;;;;;4939832;28;20520;-85
2021/11/17 20:19:29;;;;;;;827.93;756.13;;;7.00;99.90;;;;;;5055453;28;20974;-84
2021/11/17 21:18:39;;;;;;;;;;;;;;;;;;;;;
